Time;durP1;ratioP1;P1;durP2;ratioP2;P2;SDS_P1;SDS_P2;PMS_P1;PMS_P2;Temp;Humidity;BMP_temperature;BMP_pressure;BME280_temperature;BME280_humidity;BME280_pressure;Samples;Min_cycle;Max_cycle;Signal;HPM_P1;HPM_P2
2021/01/24 00:01:09;;;;;;;5.60;3.55;;;;;;;;;;6335840;22;20430;-79
2021/01/24 00:03:35;;;;;;;5.40;3.88;;;;;;;;;;6335819;22;20541;-79
2021/01/24 00:06:01;;;;;;;4.15;3.20;;;;;;;;;;6335462;22;20009;-80
2021/01/24 00:08:27;;;;;;;5.28;3.45;;;;;;;;;;6335741;22;20002;-80
2021/01/24 00:10:53;;;;;;;4.55;3.42;;;;;;;;;;6334476;22;20001;-80
2021/01/24 00:13:19;;;;;;;4.65;3.42;;;;;;;;;;6362409;22;19999;-79
2021/01/24 00:15:45;;;;;;;5.07;3.53;;;;;;;;;;6363275;22;20499;-79
2021/01/24 00:18:11;;;;;;;5.43;3.67;;;;;;;;;;6336845;22;19999;-80
2021/01/24 00:20:37;;;;;;;5.07;3.50;;;;;;;;;;6364354;22;20051;-80
2021/01/24 00:23:03;;;;;;;4.65;3.45;;;;;;;;;;6336578;22;20089;-80
2021/01/24 00:25:29;;;;;;;5.40;3.78;;;;;;;;;;6336495;22;20006;-79
2021/01/24 00:27:55;;;;;;;4.78;3.38;;;;;;;;;;6365177;22;20078;-80
2021/01/24 00:30:21;;;;;;;4.53;3.50;;;;;;;;;;6363930;22;20047;-80
2021/01/24 00:32:47;;;;;;;6.53;3.80;;;;;;;;;;6335941;22;19998;-78
2021/01/24 00:35:13;;;;;;;6.45;3.58;;;;;;;;;;6335408;22;20382;-77
2021/01/24 00:37:40;;;;;;;5.00;3.33;;;;;;;;;;6337333;22;20672;-79
2021/01/24 00:40:07;;;;;;;4.70;3.47;;;;;;;;;;6337547;22;20009;-80
2021/01/24 00:42:33;;;;;;;5.47;3.35;;;;;;;;;;6338201;22;20010;-79
2021/01/24 00:44:59;;;;;;;4.28;3.25;;;;;;;;;;6365272;22;20029;-80
2021/01/24 00:47:25;;;;;;;4.15;3.15;;;;;;;;;;6337308;22;20056;-80
2021/01/24 00:49:51;;;;;;;4.30;3.13;;;;;;;;;;6335732;22;20439;-79
2021/01/24 00:52:17;;;;;;;3.80;2.72;;;;;;;;;;6363568;22;20001;-80
2021/01/24 00:54:43;;;;;;;3.33;2.45;;;;;;;;;;6334834;22;20086;-80
2021/01/24 00:57:09;;;;;;;4.18;2.50;;;;;;;;;;6363714;22;20120;-78
2021/01/24 00:59:35;;;;;;;3.97;2.53;;;;;;;;;;6335722;22;20464;-79
2021/01/24 01:02:01;;;;;;;3.10;2.38;;;;;;;;;;6335781;22;20006;-79
2021/01/24 01:04:27;;;;;;;3.50;2.30;;;;;;;;;;6362597;22;20007;-80
2021/01/24 01:06:53;;;;;;;3.88;2.60;;;;;;;;;;6335488;22;19999;-80
2021/01/24 01:09:19;;;;;;;3.67;2.60;;;;;;;;;;6335603;22;20002;-80
2021/01/24 01:11:45;;;;;;;4.85;2.70;;;;;;;;;;6335004;22;20003;-80
2021/01/24 01:14:11;;;;;;;5.47;2.85;;;;;;;;;;6362901;22;20427;-80
2021/01/24 01:16:37;;;;;;;4.03;2.38;;;;;;;;;;6333840;22;20085;-80
2021/01/24 01:19:03;;;;;;;3.33;2.03;;;;;;;;;;6363251;22;19998;-79
2021/01/24 01:21:29;;;;;;;7.03;3.85;;;;;;;;;;6363199;22;19998;-79
2021/01/24 01:23:55;;;;;;;3.13;1.70;;;;;;;;;;6362576;22;20055;-80
2021/01/24 01:26:21;;;;;;;2.30;1.50;;;;;;;;;;6334761;22;20017;-81
2021/01/24 01:28:47;;;;;;;1.42;1.00;;;;;;;;;;6336108;22;20404;-80
2021/01/24 01:31:13;;;;;;;2.08;0.90;;;;;;;;;;6334508;22;20002;-79
2021/01/24 01:33:39;;;;;;;0.90;0.80;;;;;;;;;;6334991;22;19998;-80
2021/01/24 01:36:05;;;;;;;1.40;0.90;;;;;;;;;;6362701;22;20001;-80
2021/01/24 01:38:32;;;;;;;1.10;0.80;;;;;;;;;;6334883;22;20006;-79
2021/01/24 01:40:58;;;;;;;1.45;1.02;;;;;;;;;;6334864;22;20085;-80
2021/01/24 01:43:24;;;;;;;1.38;0.90;;;;;;;;;;6334908;22;19999;-80
2021/01/24 01:45:50;;;;;;;1.80;1.10;;;;;;;;;;6334184;22;20041;-80
2021/01/24 01:48:16;;;;;;;2.28;1.13;;;;;;;;;;6334936;22;20434;-80
2021/01/24 01:50:42;;;;;;;1.07;0.90;;;;;;;;;;6334999;22;20014;-80
2021/01/24 01:53:08;;;;;;;2.05;1.08;;;;;;;;;;6362651;22;20007;-79
2021/01/24 01:55:34;;;;;;;1.90;1.20;;;;;;;;;;6334207;22;20080;-79
2021/01/24 01:58:01;;;;;;;2.45;1.27;;;;;;;;;;6335151;22;20010;-80
2021/01/24 02:00:27;;;;;;;2.50;1.50;;;;;;;;;;6334864;22;20029;-80
2021/01/24 02:02:56;;;;;;;2.40;1.50;;;;;;;;;;6355295;22;20404;-80
2021/01/24 02:05:31;;;;;;;2.58;1.63;;;;;;;;;;6333938;22;20059;-79
2021/01/24 02:08:08;;;;;;;3.38;1.00;;;;;;;;;;6335288;22;20442;-81
2021/01/24 02:10:40;;;;;;;2.13;0.73;;;;;;;;;;6338006;22;19999;-81
2021/01/24 02:13:11;;;;;;;1.10;0.70;;;;;;;;;;6336132;22;20361;-78
2021/01/24 02:15:39;;;;;;;1.02;0.50;;;;;;;;;;6334655;22;20041;-81
2021/01/24 02:18:05;;;;;;;;;;;;;;;;;;6335312;22;20009;-79
2021/01/24 02:20:31;;;;;;;0.60;0.60;;;;;;;;;;6334823;22;19981;-79
2021/01/24 02:22:57;;;;;;;0.52;0.50;;;;;;;;;;6334556;22;20009;-80
2021/01/24 02:25:47;;;;;;;0.40;0.40;;;;;;;;;;6361539;22;20430;-77
2021/01/24 02:28:19;;;;;;;0.50;0.50;;;;;;;;;;6335962;22;20660;-78
2021/01/24 02:30:45;;;;;;;0.52;0.50;;;;;;;;;;6336242;22;20063;-80
2021/01/24 02:33:18;;;;;;;0.50;0.50;;;;;;;;;;6364857;22;19994;-79
2021/01/24 02:35:57;;;;;;;0.52;0.50;;;;;;;;;;6364008;22;20101;-80
2021/01/24 02:38:24;;;;;;;1.33;0.70;;;;;;;;;;6336423;22;20010;-79
2021/01/24 02:40:50;;;;;;;1.00;0.70;;;;;;;;;;6364549;22;20419;-79
2021/01/24 02:43:17;;;;;;;0.80;0.80;;;;;;;;;;6364406;22;20013;-79
2021/01/24 02:45:44;;;;;;;3.05;1.00;;;;;;;;;;6363164;22;20139;-78
2021/01/24 02:48:10;;;;;;;2.45;1.00;;;;;;;;;;6336431;22;20002;-79
2021/01/24 02:50:36;;;;;;;1.65;1.10;;;;;;;;;;6335984;22;20010;-79
2021/01/24 02:53:03;;;;;;;2.28;1.08;;;;;;;;;;6335832;22;20044;-79
2021/01/24 02:55:29;;;;;;;1.50;1.10;;;;;;;;;;6335679;22;20015;-79
2021/01/24 02:57:56;;;;;;;1.83;1.10;;;;;;;;;;6336354;22;20040;-79
2021/01/24 03:00:23;;;;;;;2.05;1.20;;;;;;;;;;6358203;22;20069;-79
2021/01/24 03:02:50;;;;;;;2.13;1.45;;;;;;;;;;6340046;22;20055;-80
2021/01/24 03:05:16;;;;;;;2.25;1.60;;;;;;;;;;6339170;22;20431;-79
2021/01/24 03:07:43;;;;;;;2.90;1.70;;;;;;;;;;6367491;22;20093;-79
2021/01/24 03:10:09;;;;;;;4.87;1.47;;;;;;;;;;6339516;22;20350;-79
2021/01/24 03:12:39;;;;;;;2.17;1.50;;;;;;;;;;6367580;22;20002;-79
2021/01/24 03:15:05;;;;;;;2.40;1.60;;;;;;;;;;6338999;22;20006;-79
2021/01/24 03:17:34;;;;;;;4.32;1.90;;;;;;;;;;6339795;22;20006;-79
2021/01/24 03:20:02;;;;;;;2.90;2.05;;;;;;;;;;6367413;22;20666;-79
2021/01/24 03:22:28;;;;;;;2.50;1.50;;;;;;;;;;6339207;22;20006;-79
2021/01/24 03:24:54;;;;;;;3.22;1.70;;;;;;;;;;6367316;22;20005;-79
2021/01/24 03:27:20;;;;;;;2.53;1.70;;;;;;;;;;6367615;22;20491;-79
2021/01/24 03:29:47;;;;;;;2.72;1.60;;;;;;;;;;6367129;22;19998;-79
2021/01/24 03:32:12;;;;;;;3.65;1.88;;;;;;;;;;6339367;22;20002;-79
2021/01/24 03:34:39;;;;;;;3.13;1.90;;;;;;;;;;6367299;22;20011;-79
2021/01/24 03:37:04;;;;;;;4.60;2.20;;;;;;;;;;6338887;22;20092;-79
2021/01/24 03:39:30;;;;;;;3.78;2.20;;;;;;;;;;6366600;22;20034;-79
2021/01/24 03:41:57;;;;;;;4.70;2.10;;;;;;;;;;6338948;22;19998;-79
2021/01/24 03:44:22;;;;;;;3.67;2.30;;;;;;;;;;6366599;22;20069;-79
2021/01/24 03:46:48;;;;;;;3.60;2.50;;;;;;;;;;6339219;22;20099;-80
2021/01/24 03:49:15;;;;;;;4.00;2.45;;;;;;;;;;6367119;22;19998;-79
2021/01/24 03:51:41;;;;;;;3.30;2.30;;;;;;;;;;6338634;22;20051;-80
2021/01/24 03:54:07;;;;;;;4.45;2.50;;;;;;;;;;6339045;22;20431;-79
2021/01/24 03:56:33;;;;;;;5.30;2.33;;;;;;;;;;6366698;22;19994;-79
2021/01/24 03:58:59;;;;;;;4.10;2.28;;;;;;;;;;6366879;22;20010;-80
2021/01/24 04:01:25;;;;;;;5.65;3.17;;;;;;;;;;6338682;22;20797;-80
2021/01/24 04:03:51;;;;;;;5.10;3.05;;;;;;;;;;6363336;22;20071;-80
2021/01/24 04:06:17;;;;;;;3.67;2.70;;;;;;;;;;6335656;22;20067;-80
2021/01/24 04:08:43;;;;;;;4.13;2.67;;;;;;;;;;6336840;22;20002;-80
2021/01/24 04:11:09;;;;;;;6.07;2.72;;;;;;;;;;6335890;22;20002;-80
2021/01/24 04:13:35;;;;;;;4.97;2.50;;;;;;;;;;6363893;22;20006;-79
2021/01/24 04:16:01;;;;;;;5.55;2.65;;;;;;;;;;6362836;22;20414;-80
2021/01/24 04:18:27;;;;;;;5.95;3.10;;;;;;;;;;6364700;22;20077;-79
2021/01/24 04:20:53;;;;;;;5.32;2.70;;;;;;;;;;6336070;22;19998;-80
2021/01/24 04:23:19;;;;;;;6.00;3.03;;;;;;;;;;6365517;22;20013;-80
2021/01/24 04:25:45;;;;;;;5.55;3.20;;;;;;;;;;6363969;22;20009;-79
2021/01/24 04:28:11;;;;;;;4.40;2.47;;;;;;;;;;6336059;22;20002;-79
2021/01/24 04:30:37;;;;;;;5.22;2.63;;;;;;;;;;6363829;22;20453;-80
2021/01/24 04:33:05;;;;;;;4.88;2.83;;;;;;;;;;6335469;22;20002;-80
2021/01/24 04:35:31;;;;;;;5.40;3.20;;;;;;;;;;6361890;22;19998;-80
2021/01/24 04:37:57;;;;;;;5.75;3.55;;;;;;;;;;6335592;22;20013;-80
2021/01/24 04:40:23;;;;;;;5.82;3.30;;;;;;;;;;6335367;22;20003;-80
2021/01/24 04:42:49;;;;;;;5.68;3.50;;;;;;;;;;6335752;22;19998;-79
2021/01/24 04:45:15;;;;;;;6.40;3.60;;;;;;;;;;6363089;22;20077;-79
2021/01/24 04:47:45;;;;;;;6.72;3.78;;;;;;;;;;6335415;22;20030;-79
2021/01/24 04:50:11;;;;;;;5.32;2.95;;;;;;;;;;6334940;22;20395;-79
2021/01/24 04:52:37;;;;;;;4.72;2.97;;;;;;;;;;6336126;22;20078;-79
2021/01/24 04:55:03;;;;;;;5.70;2.50;;;;;;;;;;6335197;22;20006;-80
2021/01/24 04:57:31;;;;;;;2.72;1.67;;;;;;;;;;6336064;22;20423;-79
2021/01/24 04:59:57;;;;;;;4.82;2.50;;;;;;;;;;6362773;22;20002;-80
2021/01/24 05:02:23;;;;;;;4.93;2.60;;;;;;;;;;6363453;22;20011;-78
2021/01/24 05:04:52;;;;;;;4.13;2.50;;;;;;;;;;6334441;22;20026;-80
2021/01/24 05:07:18;;;;;;;6.45;2.85;;;;;;;;;;6363982;22;19998;-80
2021/01/24 05:09:47;;;;;;;3.58;2.42;;;;;;;;;;6335733;22;20006;-78
2021/01/24 05:12:13;;;;;;;5.55;2.88;;;;;;;;;;6335706;22;20005;-81
2021/01/24 05:14:40;;;;;;;4.55;2.67;;;;;;;;;;6362849;22;20006;-80
2021/01/24 05:17:06;;;;;;;6.22;2.72;;;;;;;;;;6335865;22;20923;-78
2021/01/24 05:19:33;;;;;;;5.68;2.65;;;;;;;;;;6363310;22;20026;-79
2021/01/24 05:22:00;;;;;;;7.40;3.10;;;;;;;;;;6335639;22;20029;-79
2021/01/24 05:24:26;;;;;;;5.27;2.73;;;;;;;;;;6334705;22;20530;-78
2021/01/24 05:26:52;;;;;;;4.95;2.60;;;;;;;;;;6363203;22;19994;-80
2021/01/24 05:29:25;;;;;;;4.63;3.00;;;;;;;;;;6335275;22;20001;-80
2021/01/24 05:31:53;;;;;;;4.53;3.00;;;;;;;;;;6335173;22;19998;-79
2021/01/24 05:34:26;;;;;;;5.22;2.88;;;;;;;;;;6362777;22;20066;-79
2021/01/24 05:36:52;;;;;;;4.85;3.00;;;;;;;;;;6335370;22;20002;-80
2021/01/24 05:39:18;;;;;;;6.20;3.42;;;;;;;;;;6335872;22;20007;-80
2021/01/24 05:41:51;;;;;;;4.25;2.97;;;;;;;;;;6335462;22;20017;-78
2021/01/24 05:44:19;;;;;;;4.65;2.60;;;;;;;;;;6335001;22;20529;-80
2021/01/24 05:46:45;;;;;;;7.68;3.63;;;;;;;;;;6363473;22;20003;-79
2021/01/24 05:49:12;;;;;;;8.90;3.45;;;;;;;;;;6335597;22;20085;-79
2021/01/24 05:51:38;;;;;;;7.03;3.50;;;;;;;;;;6336378;22;20044;-79
2021/01/24 05:54:04;;;;;;;5.10;3.17;;;;;;;;;;6335893;22;20007;-79
2021/01/24 05:56:31;;;;;;;6.75;3.10;;;;;;;;;;6362961;22;20013;-78
2021/01/24 05:58:57;;;;;;;7.38;3.78;;;;;;;;;;6363849;22;20005;-80
2021/01/24 06:01:24;;;;;;;6.82;3.15;;;;;;;;;;6364054;22;20438;-80
2021/01/24 06:03:50;;;;;;;9.82;3.28;;;;;;;;;;6337210;22;20002;-78
2021/01/24 06:06:16;;;;;;;7.80;3.08;;;;;;;;;;6336993;22;20009;-79
2021/01/24 06:08:42;;;;;;;6.82;3.20;;;;;;;;;;6338193;22;19999;-79
2021/01/24 06:11:09;;;;;;;4.05;2.65;;;;;;;;;;6365326;22;19998;-79
2021/01/24 06:13:35;;;;;;;6.75;2.78;;;;;;;;;;6365387;22;19998;-80
2021/01/24 06:16:06;;;;;;;5.82;2.45;;;;;;;;;;6364510;22;20098;-80
2021/01/24 06:18:45;;;;;;;5.97;2.67;;;;;;;;;;6336543;22;20006;-80
2021/01/24 06:21:13;;;;;;;4.55;2.50;;;;;;;;;;6365482;22;20449;-80
2021/01/24 06:23:42;;;;;;;4.72;2.67;;;;;;;;;;6336732;22;20010;-79
2021/01/24 06:26:10;;;;;;;5.25;2.92;;;;;;;;;;6335864;22;20013;-80
2021/01/24 06:28:38;;;;;;;5.90;2.63;;;;;;;;;;6337407;22;20047;-80
2021/01/24 06:31:04;;;;;;;5.80;3.05;;;;;;;;;;6365103;22;19999;-79
2021/01/24 06:33:31;;;;;;;5.30;2.47;;;;;;;;;;6336558;22;20066;-80
2021/01/24 06:35:59;;;;;;;8.82;2.92;;;;;;;;;;6364201;22;20002;-79
2021/01/24 06:38:32;;;;;;;5.50;2.50;;;;;;;;;;6336958;22;20324;-80
2021/01/24 06:40:59;;;;;;;5.25;2.65;;;;;;;;;;6336601;22;20006;-79
2021/01/24 06:43:32;;;;;;;4.97;2.58;;;;;;;;;;6336983;22;20022;-79
2021/01/24 06:45:58;;;;;;;5.38;2.83;;;;;;;;;;6336146;22;20010;-79
2021/01/24 06:48:40;;;;;;;4.72;2.60;;;;;;;;;;6364791;22;20427;-78
2021/01/24 06:51:26;;;;;;;7.68;3.30;;;;;;;;;;6336994;22;20433;-80
2021/01/24 06:53:52;;;;;;;6.35;3.40;;;;;;;;;;6336761;22;20002;-79
2021/01/24 06:56:18;;;;;;;6.57;3.60;;;;;;;;;;6335977;22;20085;-79
2021/01/24 06:58:50;;;;;;;8.43;3.60;;;;;;;;;;6336896;22;20431;-79
2021/01/24 07:01:23;;;;;;;11.35;3.78;;;;;;;;;;6364644;22;20002;-78
2021/01/24 07:04:08;;;;;;;5.95;3.22;;;;;;;;;;6336423;22;20726;-79
2021/01/24 07:06:34;;;;;;;6.47;3.40;;;;;;;;;;6335807;22;20003;-79
2021/01/24 07:09:01;;;;;;;6.85;3.78;;;;;;;;;;6364631;22;20044;-79
2021/01/24 07:11:45;;;;;;;6.07;3.27;;;;;;;;;;6336675;22;20432;-79
2021/01/24 07:14:30;;;;;;;8.07;3.80;;;;;;;;;;6336546;22;20055;-80
2021/01/24 07:16:56;;;;;;;9.70;4.10;;;;;;;;;;6364757;22;20590;-79
2021/01/24 07:19:22;;;;;;;9.52;4.35;;;;;;;;;;6364475;22;20431;-79
2021/01/24 07:21:49;;;;;;;8.45;4.55;;;;;;;;;;6336905;22;20002;-79
2021/01/24 07:24:15;;;;;;;7.30;4.53;;;;;;;;;;6364504;22;20006;-79
2021/01/24 07:26:41;;;;;;;11.35;4.50;;;;;;;;;;6335526;22;20008;-79
2021/01/24 07:29:07;;;;;;;7.90;4.65;;;;;;;;;;6364890;22;19998;-79
2021/01/24 07:31:33;;;;;;;7.18;3.38;;;;;;;;;;6336386;22;20051;-78
2021/01/24 07:34:00;;;;;;;6.35;3.97;;;;;;;;;;6336027;22;20007;-79
2021/01/24 07:36:26;;;;;;;6.18;3.58;;;;;;;;;;6335365;22;20093;-79
2021/01/24 07:38:52;;;;;;;5.57;3.67;;;;;;;;;;6336570;22;20313;-80
2021/01/24 07:41:20;;;;;;;6.35;3.55;;;;;;;;;;6336370;22;20606;-79
2021/01/24 07:43:46;;;;;;;;;;;;;;;;;;6365547;22;20002;-80
2021/01/24 07:46:12;;;;;;;6.90;3.78;;;;;;;;;;6336149;22;19902;-79
2021/01/24 07:48:38;;;;;;;7.97;4.07;;;;;;;;;;6336637;22;20335;-79
2021/01/24 07:51:04;;;;;;;8.05;3.65;;;;;;;;;;6364275;22;20006;-79
2021/01/24 07:53:30;;;;;;;10.27;3.70;;;;;;;;;;6337151;22;20072;-79
2021/01/24 07:55:56;;;;;;;10.25;4.00;;;;;;;;;;6336167;22;20458;-78
2021/01/24 07:58:22;;;;;;;6.55;3.30;;;;;;;;;;6336308;22;20082;-78
2021/01/24 08:00:48;;;;;;;6.72;3.20;;;;;;;;;;6364321;22;20085;-78
2021/01/24 08:03:20;;;;;;;9.50;4.05;;;;;;;;;;6336164;22;20009;-79
2021/01/24 08:05:46;;;;;;;9.05;4.15;;;;;;;;;;6335712;22;20449;-79
2021/01/24 08:08:12;;;;;;;9.05;4.07;;;;;;;;;;6336268;22;20505;-80
2021/01/24 08:10:38;;;;;;;8.18;3.78;;;;;;;;;;6364047;22;20001;-79
2021/01/24 08:13:04;;;;;;;6.38;3.50;;;;;;;;;;6364211;22;20005;-79
2021/01/24 08:15:30;;;;;;;8.23;3.67;;;;;;;;;;6363755;22;20006;-79
2021/01/24 08:18:00;;;;;;;10.02;3.60;;;;;;;;;;6364108;22;20002;-79
2021/01/24 08:20:28;;;;;;;7.13;3.70;;;;;;;;;;6337023;22;20013;-79
2021/01/24 08:22:53;;;;;;;;;;;;;;;;;;6338717;22;20010;-78
2021/01/24 08:25:20;;;;;;;7.10;4.47;;;;;;;;;;6336785;22;19913;-78
2021/01/24 08:27:47;;;;;;;8.63;3.85;;;;;;;;;;6338197;22;20077;-80
2021/01/24 08:30:14;;;;;;;5.90;3.43;;;;;;;;;;6335391;22;20075;-79
2021/01/24 08:32:41;;;;;;;8.18;3.70;;;;;;;;;;6335620;22;20005;-79
2021/01/24 08:35:07;;;;;;;9.00;3.53;;;;;;;;;;6362755;22;20006;-79
2021/01/24 08:37:34;;;;;;;4.85;3.35;;;;;;;;;;6334814;22;20013;-79
2021/01/24 08:40:00;;;;;;;11.70;3.60;;;;;;;;;;6335220;22;20009;-79
2021/01/24 08:42:42;;;;;;;7.15;3.08;;;;;;;;;;6335182;22;20652;-79
2021/01/24 08:45:09;;;;;;;9.48;3.00;;;;;;;;;;6334776;22;20009;-78
2021/01/24 08:47:35;;;;;;;5.35;2.90;;;;;;;;;;6363202;22;20029;-79
2021/01/24 08:50:05;;;;;;;7.72;3.22;;;;;;;;;;6335014;22;20010;-80
2021/01/24 08:52:31;;;;;;;6.35;2.60;;;;;;;;;;6335718;22;20013;-79
2021/01/24 08:55:01;;;;;;;10.32;3.15;;;;;;;;;;6334427;22;20033;-79
2021/01/24 08:57:37;;;;;;;6.47;3.20;;;;;;;;;;6335578;22;20006;-80
2021/01/24 09:00:07;;;;;;;8.70;4.13;;;;;;;;;;6335559;22;20089;-80
2021/01/24 09:02:37;;;;;;;6.80;3.42;;;;;;;;;;6361996;22;20335;-79
2021/01/24 09:05:05;;;;;;;7.25;3.08;;;;;;;;;;6334428;22;20002;-80
2021/01/24 09:07:38;;;;;;;10.13;5.07;;;;;;;;;;6335661;22;20650;-80
2021/01/24 09:10:24;;;;;;;8.00;3.22;;;;;;;;;;6335062;22;19995;-79
2021/01/24 09:12:54;;;;;;;6.10;2.90;;;;;;;;;;6363536;22;19995;-79
2021/01/24 09:15:20;;;;;;;5.50;2.60;;;;;;;;;;6334586;22;20236;-79
2021/01/24 09:17:47;;;;;;;5.32;2.65;;;;;;;;;;6335189;22;20002;-80
2021/01/24 09:20:13;;;;;;;5.03;2.40;;;;;;;;;;6335238;22;20439;-80
2021/01/24 09:22:39;;;;;;;5.47;2.67;;;;;;;;;;6335547;22;20010;-80
2021/01/24 09:25:06;;;;;;;12.15;5.03;;;;;;;;;;6362521;22;20026;-80
2021/01/24 09:27:32;;;;;;;9.32;5.03;;;;;;;;;;6366561;22;20022;-80
2021/01/24 09:29:58;;;;;;;6.47;2.67;;;;;;;;;;6337152;22;20060;-78
2021/01/24 09:32:24;;;;;;;4.57;2.20;;;;;;;;;;6335169;22;19998;-80
2021/01/24 09:34:50;;;;;;;5.50;2.53;;;;;;;;;;6334948;22;20002;-80
2021/01/24 09:37:16;;;;;;;7.38;2.75;;;;;;;;;;6335745;22;20131;-80
2021/01/24 09:39:42;;;;;;;5.15;2.63;;;;;;;;;;6363675;22;20006;-79
2021/01/24 09:42:08;;;;;;;8.43;2.05;;;;;;;;;;6335684;22;20003;-80
2021/01/24 09:44:34;;;;;;;7.20;2.10;;;;;;;;;;6362108;22;20033;-79
2021/01/24 09:47:00;;;;;;;5.20;2.05;;;;;;;;;;6334911;22;19998;-78
2021/01/24 09:49:27;;;;;;;5.00;2.38;;;;;;;;;;6334755;22;19999;-79
2021/01/24 09:51:53;;;;;;;4.78;2.30;;;;;;;;;;6335319;22;20018;-79
2021/01/24 09:54:19;;;;;;;5.43;2.72;;;;;;;;;;6334142;22;20336;-80
2021/01/24 09:56:45;;;;;;;7.57;3.10;;;;;;;;;;6335534;22;20010;-79
2021/01/24 09:59:13;;;;;;;3.53;2.22;;;;;;;;;;6335551;22;20044;-80
2021/01/24 10:01:39;;;;;;;6.60;2.83;;;;;;;;;;6335608;22;20083;-79
2021/01/24 10:04:05;;;;;;;7.88;3.38;;;;;;;;;;6363282;22;20040;-79
2021/01/24 10:06:33;;;;;;;8.77;3.83;;;;;;;;;;6334652;22;19994;-79
2021/01/24 10:08:59;;;;;;;10.65;4.15;;;;;;;;;;6363095;22;20006;-80
2021/01/24 10:11:25;;;;;;;7.93;3.80;;;;;;;;;;6363652;22;19998;-80
2021/01/24 10:13:51;;;;;;;9.40;4.80;;;;;;;;;;6335499;22;20059;-81
2021/01/24 10:16:17;;;;;;;5.18;2.20;;;;;;;;;;6334380;22;20085;-80
2021/01/24 10:18:44;;;;;;;4.38;2.00;;;;;;;;;;6363399;22;20701;-80
2021/01/24 10:21:10;;;;;;;5.50;2.30;;;;;;;;;;6333945;22;20010;-78
2021/01/24 10:23:36;;;;;;;4.10;1.95;;;;;;;;;;6335349;22;20085;-79
2021/01/24 10:26:02;;;;;;;7.00;2.47;;;;;;;;;;6362403;22;20002;-79
2021/01/24 10:28:28;;;;;;;3.30;1.98;;;;;;;;;;6335204;22;20499;-80
2021/01/24 10:30:54;;;;;;;6.28;2.80;;;;;;;;;;6334555;22;19998;-80
2021/01/24 10:33:21;;;;;;;3.45;1.90;;;;;;;;;;6335862;22;20007;-80
2021/01/24 10:35:47;;;;;;;3.72;2.08;;;;;;;;;;6335246;22;20402;-79
2021/01/24 10:38:14;;;;;;;4.80;2.50;;;;;;;;;;6335204;22;20030;-80
2021/01/24 10:40:40;;;;;;;5.28;2.40;;;;;;;;;;6334376;22;20411;-80
2021/01/24 10:43:06;;;;;;;3.95;1.90;;;;;;;;;;6334731;22;20053;-80
2021/01/24 10:45:33;;;;;;;3.25;1.63;;;;;;;;;;6333560;22;20007;-79
2021/01/24 10:48:00;;;;;;;4.47;2.20;;;;;;;;;;6334990;22;20027;-80
2021/01/24 10:50:26;;;;;;;8.73;1.90;;;;;;;;;;6364343;22;20006;-78
2021/01/24 10:52:52;;;;;;;3.00;1.67;;;;;;;;;;6364126;22;20406;-80
2021/01/24 10:55:18;;;;;;;5.72;2.05;;;;;;;;;;6335344;22;20006;-80
2021/01/24 10:57:44;;;;;;;5.25;1.70;;;;;;;;;;6335995;22;20006;-79
2021/01/24 11:00:10;;;;;;;7.63;1.95;;;;;;;;;;6363562;22;20006;-81
2021/01/24 11:02:37;;;;;;;6.25;2.00;;;;;;;;;;6336285;22;20017;-80
2021/01/24 11:05:04;;;;;;;4.45;1.98;;;;;;;;;;6335370;22;20441;-80
2021/01/24 11:07:30;;;;;;;3.70;1.83;;;;;;;;;;6336319;22;20535;-81
2021/01/24 11:09:56;;;;;;;5.03;1.90;;;;;;;;;;6337015;22;20665;-80
2021/01/24 11:12:23;;;;;;;6.35;2.40;;;;;;;;;;6336757;22;20002;-79
2021/01/24 11:14:49;;;;;;;4.50;2.10;;;;;;;;;;6335934;22;20378;-80
2021/01/24 11:17:15;;;;;;;5.88;1.75;;;;;;;;;;6336937;22;20006;-80
2021/01/24 11:19:41;;;;;;;6.38;2.10;;;;;;;;;;6365074;22;20008;-81
2021/01/24 11:22:07;;;;;;;3.78;1.75;;;;;;;;;;6365266;22;20005;-78
2021/01/24 11:24:33;;;;;;;5.57;2.00;;;;;;;;;;6336494;22;20014;-80
2021/01/24 11:26:59;;;;;;;5.03;2.30;;;;;;;;;;6338007;22;20002;-81
2021/01/24 11:29:25;;;;;;;5.05;2.25;;;;;;;;;;6366278;22;19999;-79
2021/01/24 11:31:51;;;;;;;13.70;6.07;;;;;;;;;;6365657;22;20077;-79
2021/01/24 11:34:18;;;;;;;13.80;6.57;;;;;;;;;;6366286;22;20003;-79
2021/01/24 11:36:44;;;;;;;6.32;3.38;;;;;;;;;;6364938;22;19998;-82
2021/01/24 11:39:10;;;;;;;4.97;2.45;;;;;;;;;;6364827;22;20036;-79
2021/01/24 11:41:36;;;;;;;6.97;2.40;;;;;;;;;;6364511;22;20415;-80
2021/01/24 11:44:02;;;;;;;11.52;4.03;;;;;;;;;;6336126;22;20155;-80
2021/01/24 11:46:28;;;;;;;6.38;3.22;;;;;;;;;;6363806;22;20025;-78
2021/01/24 11:48:54;;;;;;;5.68;2.88;;;;;;;;;;6336413;22;20046;-80
2021/01/24 11:51:20;;;;;;;4.15;1.80;;;;;;;;;;6363941;22;20010;-80
2021/01/24 11:53:46;;;;;;;8.73;3.10;;;;;;;;;;6364273;22;20366;-80
2021/01/24 11:56:12;;;;;;;3.72;1.83;;;;;;;;;;6335112;22;20060;-80
2021/01/24 11:58:38;;;;;;;4.85;1.77;;;;;;;;;;6363942;22;20003;-79
2021/01/24 12:01:05;;;;;;;7.47;3.13;;;;;;;;;;6363725;22;20002;-80
2021/01/24 12:03:31;;;;;;;6.68;2.55;;;;;;;;;;6364499;22;20433;-81
2021/01/24 12:05:57;;;;;;;12.68;6.00;;;;;;;;;;6362696;22;20002;-80
2021/01/24 12:08:23;;;;;;;13.20;6.60;;;;;;;;;;6336356;22;20009;-81
2021/01/24 12:10:49;;;;;;;7.32;1.92;;;;;;;;;;6363908;22;19994;-80
2021/01/24 12:13:15;;;;;;;6.72;3.83;;;;;;;;;;6364967;22;20018;-80
2021/01/24 12:15:41;;;;;;;3.63;1.73;;;;;;;;;;6335836;22;20002;-80
2021/01/24 12:18:07;;;;;;;2.70;1.60;;;;;;;;;;6336161;22;20093;-80
2021/01/24 12:20:33;;;;;;;4.65;1.67;;;;;;;;;;6335914;22;20013;-79
2021/01/24 12:22:59;;;;;;;4.50;1.85;;;;;;;;;;6336073;22;20034;-79
2021/01/24 12:25:25;;;;;;;3.58;1.50;;;;;;;;;;6335322;22;20010;-79
2021/01/24 12:27:51;;;;;;;5.63;1.58;;;;;;;;;;6336261;22;20321;-78
2021/01/24 12:30:17;;;;;;;3.88;1.48;;;;;;;;;;6335444;22;19999;-78
2021/01/24 12:32:43;;;;;;;6.45;3.95;;;;;;;;;;6335072;22;20002;-78
2021/01/24 12:35:10;;;;;;;5.55;2.72;;;;;;;;;;6334901;22;20358;-79
2021/01/24 12:37:36;;;;;;;5.03;2.13;;;;;;;;;;6364049;22;19998;-78
2021/01/24 12:40:04;;;;;;;4.57;2.00;;;;;;;;;;6335948;22;20026;-79
2021/01/24 12:42:29;;;;;;;6.38;3.03;;;;;;;;;;6363412;22;20002;-81
2021/01/24 12:44:55;;;;;;;18.08;7.47;;;;;;;;;;6334686;22;20093;-81
2021/01/24 12:47:22;;;;;;;6.68;2.78;;;;;;;;;;6363712;22;20430;-79
2021/01/24 12:49:48;;;;;;;7.72;3.75;;;;;;;;;;6363760;22;20003;-80
2021/01/24 12:52:14;;;;;;;4.97;2.10;;;;;;;;;;6336091;22;20060;-79
2021/01/24 12:54:40;;;;;;;3.40;1.60;;;;;;;;;;6363241;22;20447;-80
2021/01/24 12:57:06;;;;;;;6.10;2.00;;;;;;;;;;6364056;22;20002;-81
2021/01/24 12:59:32;;;;;;;5.90;2.28;;;;;;;;;;6363793;22;20033;-80
2021/01/24 13:02:04;;;;;;;9.35;4.18;;;;;;;;;;6364339;22;20053;-79
2021/01/24 13:04:31;;;;;;;11.23;4.65;;;;;;;;;;6363494;22;20325;-80
2021/01/24 13:06:57;;;;;;;9.15;3.50;;;;;;;;;;6335093;22;20055;-79
2021/01/24 13:09:23;;;;;;;6.40;2.75;;;;;;;;;;6335324;22;20059;-80
2021/01/24 13:11:50;;;;;;;7.43;2.92;;;;;;;;;;6335563;22;19998;-80
2021/01/24 13:14:16;;;;;;;12.43;3.92;;;;;;;;;;6363114;22;19995;-79
2021/01/24 13:16:42;;;;;;;5.47;2.60;;;;;;;;;;6362633;22;20043;-80
2021/01/24 13:19:08;;;;;;;6.20;2.22;;;;;;;;;;6363408;22;19998;-80
2021/01/24 13:21:35;;;;;;;6.20;2.80;;;;;;;;;;6335064;22;20077;-79
2021/01/24 13:24:01;;;;;;;5.20;2.60;;;;;;;;;;6335188;22;20009;-80
2021/01/24 13:26:27;;;;;;;3.78;1.80;;;;;;;;;;6334667;22;20003;-81
2021/01/24 13:28:53;;;;;;;4.57;2.10;;;;;;;;;;6363080;22;20115;-79
2021/01/24 13:31:20;;;;;;;5.68;2.15;;;;;;;;;;6336388;22;20399;-80
2021/01/24 13:33:47;;;;;;;3.50;1.60;;;;;;;;;;6337655;22;20028;-81
2021/01/24 13:36:14;;;;;;;5.28;1.85;;;;;;;;;;6336287;22;20013;-80
2021/01/24 13:38:40;;;;;;;5.93;2.60;;;;;;;;;;6337550;22;20014;-78
2021/01/24 13:41:06;;;;;;;7.05;3.25;;;;;;;;;;6337428;22;20030;-80
2021/01/24 13:43:32;;;;;;;7.47;3.30;;;;;;;;;;6337391;22;20418;-79
2021/01/24 13:45:58;;;;;;;9.32;4.38;;;;;;;;;;6364769;22;20082;-77
2021/01/24 13:48:24;;;;;;;12.02;4.25;;;;;;;;;;6365316;22;20499;-78
2021/01/24 13:50:51;;;;;;;22.35;7.20;;;;;;;;;;6336411;22;20006;-79
2021/01/24 13:53:17;;;;;;;10.23;4.50;;;;;;;;;;6336355;22;19998;-80
2021/01/24 13:55:43;;;;;;;8.38;2.75;;;;;;;;;;6362667;22;20032;-79
2021/01/24 13:58:09;;;;;;;8.65;3.10;;;;;;;;;;6335397;22;20063;-79
2021/01/24 14:00:35;;;;;;;32.05;12.63;;;;;;;;;;6363303;22;19998;-79
2021/01/24 14:03:01;;;;;;;10.70;4.00;;;;;;;;;;6363259;22;20702;-78
2021/01/24 14:05:27;;;;;;;8.90;3.53;;;;;;;;;;6334590;22;20391;-80
2021/01/24 14:07:53;;;;;;;12.57;5.78;;;;;;;;;;6335727;22;20105;-78
2021/01/24 14:10:19;;;;;;;21.15;10.88;;;;;;;;;;6335362;22;20304;-78
2021/01/24 14:12:45;;;;;;;155.93;59.35;;;;;;;;;;6335258;22;20788;-79
2021/01/24 14:15:12;;;;;;;101.53;36.08;;;;;;;;;;6335539;22;20288;-79
2021/01/24 14:17:39;;;;;;;50.13;22.58;;;;;;;;;;6363968;22;20410;-80
2021/01/24 14:20:05;;;;;;;;;;;;;;;;;;6336008;22;20442;-79
2021/01/24 14:22:31;;;;;;;4.90;2.75;;;;;;;;;;6363175;22;19902;-79
2021/01/24 14:24:57;;;;;;;8.48;2.70;;;;;;;;;;6336012;22;20023;-80
2021/01/24 14:27:23;;;;;;;5.32;1.80;;;;;;;;;;6365213;22;19991;-80
2021/01/24 14:29:49;;;;;;;10.43;4.85;;;;;;;;;;6336713;22;19999;-78
2021/01/24 14:32:16;;;;;;;4.82;2.20;;;;;;;;;;6337499;22;20043;-80
2021/01/24 14:34:42;;;;;;;6.30;1.50;;;;;;;;;;6336361;22;20003;-79
2021/01/24 14:37:08;;;;;;;4.35;2.08;;;;;;;;;;6336969;22;20002;-80
2021/01/24 14:39:34;;;;;;;4.45;2.40;;;;;;;;;;6364970;22;20661;-79
2021/01/24 14:42:00;;;;;;;2.92;1.55;;;;;;;;;;6364484;22;20377;-80